Skip Navigation Links Skip Navigation Links

Current Weather

Auburn-Opelika Robert G. Pitts, Auburn, Ala.

For information only: do not use for flight planning or navigation.
Latest weather
Observation time Thursday, January 27, 2022 10:56 PM CST
Local time Thursday, January 27, 2022 11:27 PM CST
Flight conditions Visual Meteorological Conditions
Winds
Wind direction East-Southeast (120°)
Wind speed 3 mph
Visibility 10 mi.
Sky condition
Ceiling 11,000 ft. broken clouds
Cloud layer broken clouds 11,000 ft.
Temperature 45°F
Dewpoint 25°F
Altimeter 30.20 in.Hg
Derived measurements
Relative humidity 45%
Wind chill 44°F
Density altitude -408 ft.
Remarks
Fully automated report.
Automated weather observing station with precipitation discriminator.
Sea-level-pressure sensor not operating.
METAR KAUO 280456Z AUTO 12003KT 10SM BKN110 07/M04 A3020 RMK AO2 SLPNO T00721039

Settings

Location code

InnerDrive.Weather 4.0.6770.0 Release CLR 4.0.30319.42000
Copyright ©2018 Inner Drive Technology. All rights reserved. Portions Copyright ©1986-2018 David Braverman.

Find weather

Site navigation


Skip Navigation Links

Place info

Page info

PayPal - The safer, easier way to pay online!

Return home.

Copyright ©2022 Inner Drive Technology. Purveyors of fine, hand-crafted computer software. Page printed 2022-01-28T05:27:37 UTC.